Risingdale, Massachusetts
Current Conditions -  °F | °C
As of 2:54 AM on Thursday 23 Oct 2014 (Local Time) from KPSF Reporting Station
Moderate Rain Moderate Rain  
Wind Chill: 45°   Ceiling: 2500
Heat Index: 47°   Visibility: 4mi
Dew Point: 46°   Wind: 5mph
Humidity: 97%   Direction: 50°NE
Pressure: 29.82"   Gusts: NA
Location:  42.1779°N, 73.3332°W
Report Text: KPSF 230654Z AUTO 05004KT 4SM RA BR SCT013 BKN025 OVC033 08/08 A2982 RMK AO2 SLP093 P0016 T00830078
Loading
Personal Weather Stations






























Interactive Weather Map New forecast layout! Learn more

10-Day Weather Forecast

Advertisements
Track Severe Weather on mobile